sensor_id;sensor_type;location;lat;lon;timestamp;temperature;humidity
37868;DHT22;24011;48.880;9.190;2023-02-01T00:01:21;24.20;36.20
37868;DHT22;24011;48.880;9.190;2023-02-01T00:05:09;24.20;36.20
37868;DHT22;24011;48.880;9.190;2023-02-01T00:08:25;24.20;36.20
37868;DHT22;24011;48.880;9.190;2023-02-01T00:11:49;24.20;36.20
37868;DHT22;24011;48.880;9.190;2023-02-01T00:15:01;24.20;36.20
37868;DHT22;24011;48.880;9.190;2023-02-01T00:18:09;24.20;36.20
37868;DHT22;24011;48.880;9.190;2023-02-01T00:21:19;24.10;36.20
37868;DHT22;24011;48.880;9.190;2023-02-01T00:24:30;24.10;36.20
37868;DHT22;24011;48.880;9.190;2023-02-01T00:27:32;24.10;36.20
37868;DHT22;24011;48.880;9.190;2023-02-01T00:30:40;24.10;36.20
37868;DHT22;24011;48.880;9.190;2023-02-01T00:33:42;24.10;36.20
37868;DHT22;24011;48.880;9.190;2023-02-01T00:36:58;24.10;36.20
37868;DHT22;24011;48.880;9.190;2023-02-01T00:39:58;24.10;36.20
37868;DHT22;24011;48.880;9.190;2023-02-01T00:43:04;24.10;36.20
37868;DHT22;24011;48.880;9.190;2023-02-01T00:46:04;24.10;36.20
37868;DHT22;24011;48.880;9.190;2023-02-01T00:49:10;24.10;36.20
37868;DHT22;24011;48.880;9.190;2023-02-01T00:52:14;24.10;36.20
37868;DHT22;24011;48.880;9.190;2023-02-01T00:55:22;24.10;36.20
37868;DHT22;24011;48.880;9.190;2023-02-01T00:58:22;24.10;36.20
37868;DHT22;24011;48.880;9.190;2023-02-01T01:01:31;24.10;36.20
37868;DHT22;24011;48.880;9.190;2023-02-01T01:04:31;24.10;36.20
37868;DHT22;24011;48.880;9.190;2023-02-01T01:07:44;24.10;36.20
37868;DHT22;24011;48.880;9.190;2023-02-01T01:10:52;24.10;36.20
37868;DHT22;24011;48.880;9.190;2023-02-01T01:13:56;24.10;36.20
37868;DHT22;24011;48.880;9.190;2023-02-01T01:17:02;24.10;36.20
37868;DHT22;24011;48.880;9.190;2023-02-01T01:20:16;24.10;36.10
37868;DHT22;24011;48.880;9.190;2023-02-01T01:23:49;24.10;36.10
37868;DHT22;24011;48.880;9.190;2023-02-01T01:27:37;24.10;36.20
37868;DHT22;24011;48.880;9.190;2023-02-01T01:31:55;24.10;36.20
37868;DHT22;24011;48.880;9.190;2023-02-01T01:36:25;24.10;36.20
37868;DHT22;24011;48.880;9.190;2023-02-01T01:52:25;24.10;36.20
37868;DHT22;24011;48.880;9.190;2023-02-01T01:55:58;24.10;36.10
37868;DHT22;24011;48.880;9.190;2023-02-01T01:59:00;24.10;36.20
37868;DHT22;24011;48.880;9.190;2023-02-01T02:02:25;24.10;36.20
37868;DHT22;24011;48.880;9.190;2023-02-01T02:05:50;24.10;36.20
37868;DHT22;24011;48.880;9.190;2023-02-01T02:09:25;24.10;36.20
37868;DHT22;24011;48.880;9.190;2023-02-01T02:12:53;24.10;36.20
37868;DHT22;24011;48.880;9.190;2023-02-01T02:16:26;24.10;36.20
37868;DHT22;24011;48.880;9.190;2023-02-01T02:20:18;24.10;36.20
37868;DHT22;24011;48.880;9.190;2023-02-01T02:27:37;24.10;36.20
37868;DHT22;24011;48.880;9.190;2023-02-01T02:30:53;24.10;36.20
37868;DHT22;24011;48.880;9.190;2023-02-01T02:34:27;24.10;36.20
37868;DHT22;24011;48.880;9.190;2023-02-01T02:38:02;24.10;36.10
37868;DHT22;24011;48.880;9.190;2023-02-01T02:41:25;24.10;36.10
37868;DHT22;24011;48.880;9.190;2023-02-01T02:45:02;24.10;36.10
37868;DHT22;24011;48.880;9.190;2023-02-01T02:48:28;24.10;36.10
37868;DHT22;24011;48.880;9.190;2023-02-01T02:52:12;24.10;36.10
37868;DHT22;24011;48.880;9.190;2023-02-01T02:55:35;24.10;36.20
37868;DHT22;24011;48.880;9.190;2023-02-01T02:59:14;24.10;36.20
37868;DHT22;24011;48.880;9.190;2023-02-01T03:02:32;24.10;36.20
37868;DHT22;24011;48.880;9.190;2023-02-01T03:05:56;24.10;36.20
37868;DHT22;24011;48.880;9.190;2023-02-01T03:09:12;24.10;36.20
37868;DHT22;24011;48.880;9.190;2023-02-01T03:12:26;24.10;36.20
37868;DHT22;24011;48.880;9.190;2023-02-01T03:15:38;24.10;36.20
37868;DHT22;24011;48.880;9.190;2023-02-01T03:18:50;24.10;36.20
37868;DHT22;24011;48.880;9.190;2023-02-01T03:21:50;24.10;36.20
37868;DHT22;24011;48.880;9.190;2023-02-01T03:25:03;24.10;36.20
37868;DHT22;24011;48.880;9.190;2023-02-01T03:28:09;24.10;36.10
37868;DHT22;24011;48.880;9.190;2023-02-01T03:31:14;24.10;36.10
37868;DHT22;24011;48.880;9.190;2023-02-01T03:34:20;24.10;36.10
37868;DHT22;24011;48.880;9.190;2023-02-01T03:37:32;24.10;36.10
37868;DHT22;24011;48.880;9.190;2023-02-01T03:40:44;24.10;36.10
37868;DHT22;24011;48.880;9.190;2023-02-01T03:43:50;24.10;36.20
37868;DHT22;24011;48.880;9.190;2023-02-01T03:46:57;24.10;36.20
37868;DHT22;24011;48.880;9.190;2023-02-01T03:50:09;24.10;36.10
37868;DHT22;24011;48.880;9.190;2023-02-01T03:53:15;24.10;36.10
37868;DHT22;24011;48.880;9.190;2023-02-01T03:56:26;24.10;36.20
37868;DHT22;24011;48.880;9.190;2023-02-01T03:59:26;24.00;35.80
37868;DHT22;24011;48.880;9.190;2023-02-01T04:02:44;23.90;35.60
37868;DHT22;24011;48.880;9.190;2023-02-01T04:05:51;23.90;35.70
37868;DHT22;24011;48.880;9.190;2023-02-01T04:09:02;23.90;35.80
37868;DHT22;24011;48.880;9.190;2023-02-01T04:12:18;24.00;35.90
37868;DHT22;24011;48.880;9.190;2023-02-01T04:15:48;23.90;35.90
37868;DHT22;24011;48.880;9.190;2023-02-01T04:19:18;23.90;35.90
37868;DHT22;24011;48.880;9.190;2023-02-01T04:22:48;23.90;36.00
37868;DHT22;24011;48.880;9.190;2023-02-01T04:25:51;23.90;36.10
37868;DHT22;24011;48.880;9.190;2023-02-01T04:29:27;23.90;36.20
37868;DHT22;24011;48.880;9.190;2023-02-01T04:32:51;23.90;36.30
37868;DHT22;24011;48.880;9.190;2023-02-01T04:36:21;23.90;36.40
37868;DHT22;24011;48.880;9.190;2023-02-01T04:39:42;23.90;36.40
37868;DHT22;24011;48.880;9.190;2023-02-01T04:43:24;23.80;36.50
37868;DHT22;24011;48.880;9.190;2023-02-01T04:46:57;23.80;36.60
37868;DHT22;24011;48.880;9.190;2023-02-01T04:50:27;23.80;36.60
37868;DHT22;24011;48.880;9.190;2023-02-01T04:53:51;23.80;36.70
37868;DHT22;24011;48.880;9.190;2023-02-01T04:57:21;23.90;36.60
37868;DHT22;24011;48.880;9.190;2023-02-01T05:00:43;23.80;36.70
37868;DHT22;24011;48.880;9.190;2023-02-01T05:04:25;23.80;36.80
37868;DHT22;24011;48.880;9.190;2023-02-01T05:07:18;23.80;36.90
37868;DHT22;24011;48.880;9.190;2023-02-01T05:10:15;23.80;36.90
37868;DHT22;24011;48.880;9.190;2023-02-01T05:13:31;23.80;37.10
37868;DHT22;24011;48.880;9.190;2023-02-01T05:16:57;23.80;37.60
37868;DHT22;24011;48.880;9.190;2023-02-01T05:20:25;23.80;37.00
37868;DHT22;24011;48.880;9.190;2023-02-01T05:23:49;23.80;37.00
37868;DHT22;24011;48.880;9.190;2023-02-01T05:27:13;23.80;37.10
37868;DHT22;24011;48.880;9.190;2023-02-01T05:30:27;23.80;37.00
37868;DHT22;24011;48.880;9.190;2023-02-01T05:33:31;23.80;37.10
37868;DHT22;24011;48.880;9.190;2023-02-01T05:50:27;23.80;37.40
37868;DHT22;24011;48.880;9.190;2023-02-01T05:54:28;23.80;37.40
37868;DHT22;24011;48.880;9.190;2023-02-01T06:02:34;23.80;37.60
37868;DHT22;24011;48.880;9.190;2023-02-01T06:05:53;23.80;37.50
37868;DHT22;24011;48.880;9.190;2023-02-01T06:09:10;23.80;37.40
37868;DHT22;24011;48.880;9.190;2023-02-01T06:13:09;23.80;37.50
37868;DHT22;24011;48.880;9.190;2023-02-01T06:16:19;23.70;37.30
37868;DHT22;24011;48.880;9.190;2023-02-01T06:19:35;23.80;37.20
37868;DHT22;24011;48.880;9.190;2023-02-01T06:22:31;23.70;37.10
37868;DHT22;24011;48.880;9.190;2023-02-01T06:25:34;23.70;37.20
37868;DHT22;24011;48.880;9.190;2023-02-01T06:28:52;23.70;37.10
37868;DHT22;24011;48.880;9.190;2023-02-01T06:32:10;23.70;37.00
37868;DHT22;24011;48.880;9.190;2023-02-01T06:35:15;23.70;37.00
37868;DHT22;24011;48.880;9.190;2023-02-01T06:38:28;23.70;37.00
37868;DHT22;24011;48.880;9.190;2023-02-01T06:41:19;23.70;37.00
37868;DHT22;24011;48.880;9.190;2023-02-01T06:44:34;23.70;37.10
37868;DHT22;24011;48.880;9.190;2023-02-01T06:47:46;23.80;37.20
37868;DHT22;24011;48.880;9.190;2023-02-01T06:50:34;23.70;37.20
37868;DHT22;24011;48.880;9.190;2023-02-01T06:53:44;23.80;37.30
37868;DHT22;24011;48.880;9.190;2023-02-01T07:01:06;23.70;37.20
37868;DHT22;24011;48.880;9.190;2023-02-01T07:04:22;23.70;37.30
37868;DHT22;24011;48.880;9.190;2023-02-01T07:07:16;23.70;37.30
37868;DHT22;24011;48.880;9.190;2023-02-01T07:10:27;23.80;37.20
37868;DHT22;24011;48.880;9.190;2023-02-01T07:13:31;23.80;37.40
37868;DHT22;24011;48.880;9.190;2023-02-01T07:16:26;23.80;37.40
37868;DHT22;24011;48.880;9.190;2023-02-01T07:19:22;23.80;37.50
37868;DHT22;24011;48.880;9.190;2023-02-01T07:22:58;23.80;37.50
37868;DHT22;24011;48.880;9.190;2023-02-01T07:25:40;23.80;37.60
37868;DHT22;24011;48.880;9.190;2023-02-01T07:28:29;23.80;37.60
37868;DHT22;24011;48.880;9.190;2023-02-01T07:39:22;23.80;37.70
37868;DHT22;24011;48.880;9.190;2023-02-01T07:42:16;23.90;37.80
37868;DHT22;24011;48.880;9.190;2023-02-01T07:45:16;23.90;37.80
37868;DHT22;24011;48.880;9.190;2023-02-01T07:48:35;23.80;37.80
37868;DHT22;24011;48.880;9.190;2023-02-01T07:51:28;23.90;37.90
37868;DHT22;24011;48.880;9.190;2023-02-01T07:54:41;23.80;37.90
37868;DHT22;24011;48.880;9.190;2023-02-01T07:57:37;23.90;37.90
37868;DHT22;24011;48.880;9.190;2023-02-01T08:00:17;23.90;37.90
37868;DHT22;24011;48.880;9.190;2023-02-01T08:03:15;23.90;37.90
37868;DHT22;24011;48.880;9.190;2023-02-01T08:06:04;23.90;37.90
37868;DHT22;24011;48.880;9.190;2023-02-01T08:09:04;23.90;37.80
37868;DHT22;24011;48.880;9.190;2023-02-01T08:12:03;23.90;37.80
37868;DHT22;24011;48.880;9.190;2023-02-01T08:14:51;23.90;37.70
37868;DHT22;24011;48.880;9.190;2023-02-01T08:17:46;24.00;37.70
37868;DHT22;24011;48.880;9.190;2023-02-01T08:20:54;24.00;37.70
37868;DHT22;24011;48.880;9.190;2023-02-01T08:28:52;24.00;37.70
37868;DHT22;24011;48.880;9.190;2023-02-01T08:37:10;24.00;37.80
37868;DHT22;24011;48.880;9.190;2023-02-01T08:40:34;24.00;37.70
37868;DHT22;24011;48.880;9.190;2023-02-01T09:30:38;24.10;37.70
37868;DHT22;24011;48.880;9.190;2023-02-01T12:58:58;24.50;36.10
37868;DHT22;24011;48.880;9.190;2023-02-01T13:01:49;24.50;36.10
37868;DHT22;24011;48.880;9.190;2023-02-01T13:04:58;24.50;36.20
37868;DHT22;24011;48.880;9.190;2023-02-01T13:08:35;24.50;36.20
37868;DHT22;24011;48.880;9.190;2023-02-01T13:29:55;24.50;36.10
37868;DHT22;24011;48.880;9.190;2023-02-01T13:43:12;24.40;36.20
37868;DHT22;24011;48.880;9.190;2023-02-01T13:47:08;24.50;36.20
37868;DHT22;24011;48.880;9.190;2023-02-01T13:50:19;24.40;36.20
37868;DHT22;24011;48.880;9.190;2023-02-01T13:53:13;24.50;36.20
37868;DHT22;24011;48.880;9.190;2023-02-01T13:55:59;24.50;36.30
37868;DHT22;24011;48.880;9.190;2023-02-01T13:58:49;24.50;36.30
37868;DHT22;24011;48.880;9.190;2023-02-01T14:01:51;24.50;36.30
37868;DHT22;24011;48.880;9.190;2023-02-01T14:04:51;24.40;36.30
37868;DHT22;24011;48.880;9.190;2023-02-01T14:08:09;24.50;36.40
37868;DHT22;24011;48.880;9.190;2023-02-01T14:10:49;24.50;36.30
37868;DHT22;24011;48.880;9.190;2023-02-01T14:13:31;24.50;36.30
37868;DHT22;24011;48.880;9.190;2023-02-01T14:16:17;24.50;36.30
37868;DHT22;24011;48.880;9.190;2023-02-01T14:19:03;24.50;36.20
37868;DHT22;24011;48.880;9.190;2023-02-01T14:21:56;24.50;36.30
37868;DHT22;24011;48.880;9.190;2023-02-01T14:24:40;24.50;36.20
37868;DHT22;24011;48.880;9.190;2023-02-01T14:27:26;24.50;36.20
37868;DHT22;24011;48.880;9.190;2023-02-01T14:30:17;24.50;36.30
37868;DHT22;24011;48.880;9.190;2023-02-01T14:33:21;24.50;36.30
37868;DHT22;24011;48.880;9.190;2023-02-01T14:36:10;24.50;36.30
37868;DHT22;24011;48.880;9.190;2023-02-01T14:39:17;24.40;36.30
37868;DHT22;24011;48.880;9.190;2023-02-01T14:42:26;24.40;36.40
37868;DHT22;24011;48.880;9.190;2023-02-01T14:45:48;24.40;36.40
37868;DHT22;24011;48.880;9.190;2023-02-01T14:48:48;24.40;36.40
37868;DHT22;24011;48.880;9.190;2023-02-01T14:51:31;24.50;36.30
37868;DHT22;24011;48.880;9.190;2023-02-01T14:54:20;24.50;36.30
37868;DHT22;24011;48.880;9.190;2023-02-01T14:57:24;24.40;36.30
37868;DHT22;24011;48.880;9.190;2023-02-01T15:00:34;24.40;36.40
37868;DHT22;24011;48.880;9.190;2023-02-01T15:03:40;24.40;36.40
37868;DHT22;24011;48.880;9.190;2023-02-01T15:06:43;24.40;36.40
37868;DHT22;24011;48.880;9.190;2023-02-01T15:09:44;24.40;36.50
37868;DHT22;24011;48.880;9.190;2023-02-01T15:13:07;24.40;36.50
37868;DHT22;24011;48.880;9.190;2023-02-01T15:16:14;24.40;36.50
37868;DHT22;24011;48.880;9.190;2023-02-01T15:19:18;24.40;36.50
37868;DHT22;24011;48.880;9.190;2023-02-01T15:22:20;24.40;36.50
37868;DHT22;24011;48.880;9.190;2023-02-01T15:28:15;24.40;36.40
37868;DHT22;24011;48.880;9.190;2023-02-01T15:31:30;24.40;36.50
37868;DHT22;24011;48.880;9.190;2023-02-01T15:34:43;24.40;36.40
37868;DHT22;24011;48.880;9.190;2023-02-01T15:37:26;24.30;36.40
37868;DHT22;24011;48.880;9.190;2023-02-01T15:40:32;24.30;36.40
37868;DHT22;24011;48.880;9.190;2023-02-01T15:43:35;24.30;36.30
37868;DHT22;24011;48.880;9.190;2023-02-01T15:46:41;24.40;36.40
37868;DHT22;24011;48.880;9.190;2023-02-01T15:49:32;24.30;36.30
37868;DHT22;24011;48.880;9.190;2023-02-01T15:52:54;24.30;36.40
37868;DHT22;24011;48.880;9.190;2023-02-01T15:56:21;24.30;36.40
37868;DHT22;24011;48.880;9.190;2023-02-01T15:59:28;24.30;37.00
37868;DHT22;24011;48.880;9.190;2023-02-01T16:02:54;24.30;36.30
37868;DHT22;24011;48.880;9.190;2023-02-01T16:05:38;24.20;36.40
37868;DHT22;24011;48.880;9.190;2023-02-01T16:08:24;24.30;36.30
37868;DHT22;24011;48.880;9.190;2023-02-01T16:11:40;24.30;36.30
37868;DHT22;24011;48.880;9.190;2023-02-01T16:15:02;24.30;36.30
37868;DHT22;24011;48.880;9.190;2023-02-01T16:18:18;24.30;36.30
37868;DHT22;24011;48.880;9.190;2023-02-01T16:21:06;24.20;36.30
37868;DHT22;24011;48.880;9.190;2023-02-01T16:24:10;24.20;36.40
37868;DHT22;24011;48.880;9.190;2023-02-01T16:27:13;24.20;36.30
37868;DHT22;24011;48.880;9.190;2023-02-01T16:30:11;24.20;36.30
37868;DHT22;24011;48.880;9.190;2023-02-01T16:33:11;24.20;36.30
37868;DHT22;24011;48.880;9.190;2023-02-01T16:36:09;24.20;36.20
37868;DHT22;24011;48.880;9.190;2023-02-01T16:39:08;24.20;36.30
37868;DHT22;24011;48.880;9.190;2023-02-01T16:42:00;24.10;36.20
37868;DHT22;24011;48.880;9.190;2023-02-01T16:44:42;24.10;36.20
37868;DHT22;24011;48.880;9.190;2023-02-01T16:47:43;24.10;36.30
37868;DHT22;24011;48.880;9.190;2023-02-01T16:50:43;24.10;36.20
37868;DHT22;24011;48.880;9.190;2023-02-01T16:53:34;24.10;36.20
37868;DHT22;24011;48.880;9.190;2023-02-01T16:56:40;24.10;36.20
37868;DHT22;24011;48.880;9.190;2023-02-01T16:59:28;24.10;36.20
37868;DHT22;24011;48.880;9.190;2023-02-01T17:02:34;24.10;36.20
37868;DHT22;24011;48.880;9.190;2023-02-01T17:05:40;24.10;36.20
37868;DHT22;24011;48.880;9.190;2023-02-01T17:08:49;24.10;36.20
37868;DHT22;24011;48.880;9.190;2023-02-01T17:11:46;24.10;36.20
37868;DHT22;24011;48.880;9.190;2023-02-01T17:14:52;24.10;36.20
37868;DHT22;24011;48.880;9.190;2023-02-01T17:18:02;24.00;36.10
37868;DHT22;24011;48.880;9.190;2023-02-01T17:21:10;24.10;36.10
37868;DHT22;24011;48.880;9.190;2023-02-01T17:24:19;24.10;36.20
37868;DHT22;24011;48.880;9.190;2023-02-01T17:27:28;24.00;36.20
37868;DHT22;24011;48.880;9.190;2023-02-01T17:30:34;24.00;36.20
37868;DHT22;24011;48.880;9.190;2023-02-01T17:33:46;24.00;36.10
37868;DHT22;24011;48.880;9.190;2023-02-01T17:36:41;24.00;36.10
37868;DHT22;24011;48.880;9.190;2023-02-01T17:39:29;24.00;36.10
37868;DHT22;24011;48.880;9.190;2023-02-01T17:42:41;24.00;36.10
37868;DHT22;24011;48.880;9.190;2023-02-01T17:45:40;24.00;36.10
37868;DHT22;24011;48.880;9.190;2023-02-01T17:48:52;24.00;36.20
37868;DHT22;24011;48.880;9.190;2023-02-01T17:51:53;24.00;36.10
37868;DHT22;24011;48.880;9.190;2023-02-01T17:55:01;24.00;36.10
37868;DHT22;24011;48.880;9.190;2023-02-01T17:58:04;24.00;36.10
37868;DHT22;24011;48.880;9.190;2023-02-01T18:01:14;24.00;36.10
37868;DHT22;24011;48.880;9.190;2023-02-01T18:04:10;24.00;36.10
37868;DHT22;24011;48.880;9.190;2023-02-01T18:07:30;24.00;36.10
37868;DHT22;24011;48.880;9.190;2023-02-01T18:10:53;24.00;36.10
37868;DHT22;24011;48.880;9.190;2023-02-01T18:14:41;24.00;36.00
37868;DHT22;24011;48.880;9.190;2023-02-01T18:17:50;24.00;36.10
37868;DHT22;24011;48.880;9.190;2023-02-01T18:21:23;23.90;36.00
37868;DHT22;24011;48.880;9.190;2023-02-01T18:24:53;24.00;36.10
37868;DHT22;24011;48.880;9.190;2023-02-01T18:28:41;24.00;36.10
37868;DHT22;24011;48.880;9.190;2023-02-01T18:32:05;24.00;36.10
37868;DHT22;24011;48.880;9.190;2023-02-01T18:35:29;23.90;36.00
37868;DHT22;24011;48.880;9.190;2023-02-01T18:38:53;24.00;36.10
37868;DHT22;24011;48.880;9.190;2023-02-01T18:42:35;24.00;36.10
37868;DHT22;24011;48.880;9.190;2023-02-01T18:46:17;24.00;36.00
37868;DHT22;24011;48.880;9.190;2023-02-01T18:49:53;24.00;36.00
37868;DHT22;24011;48.880;9.190;2023-02-01T18:53:18;23.90;35.90
37868;DHT22;24011;48.880;9.190;2023-02-01T18:57:11;23.90;36.10
37868;DHT22;24011;48.880;9.190;2023-02-01T19:00:41;23.90;36.00
37868;DHT22;24011;48.880;9.190;2023-02-01T19:04:29;23.90;35.90
37868;DHT22;24011;48.880;9.190;2023-02-01T19:07:47;23.90;35.90
37868;DHT22;24011;48.880;9.190;2023-02-01T19:10:53;24.00;35.90
37868;DHT22;24011;48.880;9.190;2023-02-01T19:14:29;24.00;35.90
37868;DHT22;24011;48.880;9.190;2023-02-01T19:18:23;24.10;35.80
37868;DHT22;24011;48.880;9.190;2023-02-01T19:21:47;24.10;35.80
37868;DHT22;24011;48.880;9.190;2023-02-01T19:25:24;24.10;35.80
37868;DHT22;24011;48.880;9.190;2023-02-01T19:28:53;24.10;35.70
37868;DHT22;24011;48.880;9.190;2023-02-01T19:32:41;24.10;35.70
37868;DHT22;24011;48.880;9.190;2023-02-01T19:36:24;24.10;35.70
37868;DHT22;24011;48.880;9.190;2023-02-01T19:39:54;24.10;35.70
37868;DHT22;24011;48.880;9.190;2023-02-01T19:43:12;24.10;35.70
37868;DHT22;24011;48.880;9.190;2023-02-01T19:46:53;24.10;35.70
37868;DHT22;24011;48.880;9.190;2023-02-01T19:50:36;24.10;35.70
37868;DHT22;24011;48.880;9.190;2023-02-01T19:54:36;24.20;35.70
37868;DHT22;24011;48.880;9.190;2023-02-01T19:58:12;24.20;35.70
37868;DHT22;24011;48.880;9.190;2023-02-01T20:01:53;24.20;35.70
37868;DHT22;24011;48.880;9.190;2023-02-01T20:05:24;24.20;35.70
37868;DHT22;24011;48.880;9.190;2023-02-01T20:09:06;24.20;35.70
37868;DHT22;24011;48.880;9.190;2023-02-01T20:12:36;24.20;35.70
37868;DHT22;24011;48.880;9.190;2023-02-01T20:15:59;24.20;35.70
37868;DHT22;24011;48.880;9.190;2023-02-01T20:19:17;24.20;35.70
37868;DHT22;24011;48.880;9.190;2023-02-01T20:23:11;24.20;35.60
37868;DHT22;24011;48.880;9.190;2023-02-01T20:50:53;24.20;35.50
37868;DHT22;24011;48.880;9.190;2023-02-01T20:54:55;24.20;35.60
37868;DHT22;24011;48.880;9.190;2023-02-01T20:58:59;24.20;35.50
37868;DHT22;24011;48.880;9.190;2023-02-01T21:03:29;24.20;35.50
37868;DHT22;24011;48.880;9.190;2023-02-01T21:07:28;24.20;35.50
37868;DHT22;24011;48.880;9.190;2023-02-01T21:11:05;24.20;35.50
37868;DHT22;24011;48.880;9.190;2023-02-01T21:15:00;24.20;35.50
37868;DHT22;24011;48.880;9.190;2023-02-01T21:18:59;24.20;35.50
37868;DHT22;24011;48.880;9.190;2023-02-01T21:22:59;24.20;35.50
37868;DHT22;24011;48.880;9.190;2023-02-01T21:26:29;24.20;35.50
37868;DHT22;24011;48.880;9.190;2023-02-01T21:29:59;24.20;35.50
37868;DHT22;24011;48.880;9.190;2023-02-01T21:33:29;24.20;35.50
37868;DHT22;24011;48.880;9.190;2023-02-01T21:36:52;24.20;35.40
37868;DHT22;24011;48.880;9.190;2023-02-01T21:40:34;24.30;35.50
37868;DHT22;24011;48.880;9.190;2023-02-01T21:44:17;24.30;35.50
37868;DHT22;24011;48.880;9.190;2023-02-01T21:47:47;24.30;35.50
37868;DHT22;24011;48.880;9.190;2023-02-01T21:51:04;24.30;35.40
37868;DHT22;24011;48.880;9.190;2023-02-01T21:54:34;24.30;35.40
37868;DHT22;24011;48.880;9.190;2023-02-01T21:58:06;24.20;35.40
37868;DHT22;24011;48.880;9.190;2023-02-01T22:01:40;24.20;35.30
37868;DHT22;24011;48.880;9.190;2023-02-01T22:05:00;24.20;35.40
37868;DHT22;24011;48.880;9.190;2023-02-01T22:08:28;24.20;35.40
37868;DHT22;24011;48.880;9.190;2023-02-01T22:11:53;24.20;35.40
37868;DHT22;24011;48.880;9.190;2023-02-01T22:15:35;24.20;35.40
37868;DHT22;24011;48.880;9.190;2023-02-01T22:18:54;24.20;35.40
37868;DHT22;24011;48.880;9.190;2023-02-01T22:22:29;24.20;35.40
37868;DHT22;24011;48.880;9.190;2023-02-01T22:25:55;24.20;35.40
37868;DHT22;24011;48.880;9.190;2023-02-01T22:29:29;24.20;35.40
37868;DHT22;24011;48.880;9.190;2023-02-01T22:33:03;24.20;35.40
37868;DHT22;24011;48.880;9.190;2023-02-01T22:36:30;24.20;35.40
37868;DHT22;24011;48.880;9.190;2023-02-01T22:39:53;24.20;35.40
37868;DHT22;24011;48.880;9.190;2023-02-01T22:43:23;24.20;35.40
37868;DHT22;24011;48.880;9.190;2023-02-01T22:46:42;24.20;35.40
37868;DHT22;24011;48.880;9.190;2023-02-01T22:50:24;24.20;35.60
37868;DHT22;24011;48.880;9.190;2023-02-01T22:53:47;24.20;35.40
37868;DHT22;24011;48.880;9.190;2023-02-01T22:57:12;24.20;35.30
37868;DHT22;24011;48.880;9.190;2023-02-01T23:00:36;24.20;35.30
37868;DHT22;24011;48.880;9.190;2023-02-01T23:04:08;24.20;35.30
37868;DHT22;24011;48.880;9.190;2023-02-01T23:07:41;24.20;35.30
37868;DHT22;24011;48.880;9.190;2023-02-01T23:11:06;24.20;35.40
37868;DHT22;24011;48.880;9.190;2023-02-01T23:14:30;24.20;35.30
37868;DHT22;24011;48.880;9.190;2023-02-01T23:18:00;24.20;35.30
37868;DHT22;24011;48.880;9.190;2023-02-01T23:21:19;24.20;35.30
37868;DHT22;24011;48.880;9.190;2023-02-01T23:24:59;24.20;35.30
37868;DHT22;24011;48.880;9.190;2023-02-01T23:28:18;24.20;35.30
37868;DHT22;24011;48.880;9.190;2023-02-01T23:31:48;24.20;35.30
37868;DHT22;24011;48.880;9.190;2023-02-01T23:35:12;24.20;35.30
37868;DHT22;24011;48.880;9.190;2023-02-01T23:38:47;24.20;35.30
37868;DHT22;24011;48.880;9.190;2023-02-01T23:42:23;24.20;35.40
37868;DHT22;24011;48.880;9.190;2023-02-01T23:46:06;24.20;35.30
37868;DHT22;24011;48.880;9.190;2023-02-01T23:49:31;24.20;35.30
37868;DHT22;24011;48.880;9.190;2023-02-01T23:53:05;24.20;35.30
37868;DHT22;24011;48.880;9.190;2023-02-01T23:56:30;24.20;35.30
